createdAt,value
2023-01-13T00:02:03.508Z,77.13
2023-01-13T00:04:35.454Z,77.15
2023-01-13T00:07:07.258Z,77.23
2023-01-13T00:09:39.340Z,77.24
2023-01-13T00:12:13.257Z,77.06
2023-01-13T00:14:45.323Z,77.08
2023-01-13T00:17:17.441Z,77.11
2023-01-13T00:19:49.353Z,77.11
2023-01-13T00:22:21.070Z,77.10
2023-01-13T00:24:52.983Z,77.19
2023-01-13T00:27:25.489Z,77.16
2023-01-13T00:29:57.289Z,77.20
2023-01-13T00:32:29.383Z,77.21
2023-01-13T00:35:01.214Z,77.09
2023-01-13T00:37:33.109Z,77.01
2023-01-13T00:40:05.387Z,77.11
2023-01-13T00:42:54.965Z,77.05
2023-01-13T00:45:26.848Z,77.15
2023-01-13T00:47:58.775Z,77.05
2023-01-13T00:50:30.751Z,76.92
2023-01-13T00:53:03.715Z,76.96
2023-01-13T00:55:35.644Z,76.78
2023-01-13T00:58:07.487Z,76.63
2023-01-13T01:00:40.080Z,76.68
2023-01-13T01:03:14.167Z,76.71
2023-01-13T01:05:46.081Z,76.66
2023-01-13T01:08:17.906Z,76.63
2023-01-13T01:10:49.929Z,76.77
2023-01-13T01:13:21.674Z,76.67
2023-01-13T01:15:53.586Z,76.58
2023-01-13T01:18:25.537Z,76.50
2023-01-13T01:21:00.257Z,76.66
2023-01-13T01:23:32.832Z,76.52
2023-01-13T01:26:06.248Z,76.56
2023-01-13T01:28:39.942Z,76.68
2023-01-13T01:31:11.791Z,76.70
2023-01-13T01:33:44.650Z,76.53
2023-01-13T01:36:18.383Z,76.71
2023-01-13T01:38:51.840Z,76.70
2023-01-13T01:41:26.230Z,76.60
2023-01-13T01:44:07.030Z,76.68
2023-01-13T01:46:42.024Z,76.46
2023-01-13T01:49:19.138Z,76.41
2023-01-13T01:51:54.803Z,76.39
2023-01-13T01:54:31.877Z,76.44
2023-01-13T01:57:04.463Z,76.63
2023-01-13T01:59:38.489Z,76.63
2023-01-13T02:02:11.944Z,76.59
2023-01-13T02:04:51.496Z,76.46
2023-01-13T02:07:27.073Z,76.31
2023-01-13T02:10:02.879Z,76.34
2023-01-13T02:12:35.425Z,76.18
2023-01-13T02:15:12.887Z,76.18
2023-01-13T02:18:09.110Z,76.19
2023-01-13T02:21:24.899Z,76.11
2023-01-13T02:25:49.844Z,76.22
2023-01-13T02:29:20.510Z,76.28
2023-01-13T02:32:25.528Z,76.26
2023-01-13T02:35:23.781Z,76.27
2023-01-13T02:38:20.568Z,76.33
2023-01-13T02:41:38.654Z,76.22
2023-01-13T02:44:37.508Z,76.15
2023-01-13T02:47:33.532Z,76.31
2023-01-13T02:50:30.139Z,76.46
2023-01-13T02:53:29.006Z,76.51
2023-01-13T02:56:24.911Z,76.59
2023-01-13T02:59:17.865Z,76.75
2023-01-13T03:02:14.260Z,76.72
2023-01-13T03:05:08.105Z,76.72
2023-01-13T03:08:23.983Z,76.78
2023-01-13T03:11:20.366Z,76.67
2023-01-13T03:14:24.502Z,76.60
2023-01-13T03:17:27.264Z,76.54
2023-01-13T03:20:25.599Z,76.55
2023-01-13T03:23:23.631Z,76.44
2023-01-13T03:26:24.274Z,76.54
2023-01-13T03:29:22.004Z,76.67
2023-01-13T03:32:02.903Z,76.64
2023-01-13T03:34:58.260Z,76.51
2023-01-13T03:37:57.744Z,76.47
2023-01-13T03:40:55.775Z,76.41
2023-01-13T03:44:12.989Z,76.29
2023-01-13T03:47:12.271Z,76.42
2023-01-13T03:50:08.379Z,76.38
2023-01-13T03:53:09.367Z,76.41
2023-01-13T03:56:08.606Z,76.15
2023-01-13T03:59:05.149Z,76.12
2023-01-13T04:02:05.907Z,76.31
2023-01-13T04:05:04.038Z,76.13
2023-01-13T04:07:47.660Z,76.17
2023-01-13T04:10:49.854Z,76.23
2023-01-13T04:13:44.801Z,76.08
2023-01-13T04:16:37.826Z,76.09
2023-01-13T04:19:32.949Z,76.09
2023-01-13T04:22:25.165Z,76.06
2023-01-13T04:25:17.604Z,76.09
2023-01-13T04:28:04.524Z,76.14
2023-01-13T04:30:56.776Z,76.10
2023-01-13T04:33:48.987Z,75.84
2023-01-13T04:36:25.151Z,75.94
2023-01-13T04:39:18.778Z,75.77
2023-01-13T04:41:59.509Z,75.87
2023-01-13T04:44:51.729Z,75.74
2023-01-13T04:47:44.093Z,76.00
2023-01-13T04:50:37.260Z,75.85
2023-01-13T04:53:29.338Z,75.46
2023-01-13T04:56:03.797Z,75.72
2023-01-13T04:58:55.986Z,75.52
2023-01-13T05:01:48.497Z,75.43
2023-01-13T05:04:40.844Z,75.21
2023-01-13T05:07:33.028Z,74.86
2023-01-13T05:10:25.205Z,74.94
2023-01-13T05:13:34.991Z,74.66
2023-01-13T05:16:44.807Z,74.80
2023-01-13T05:19:40.691Z,75.08
2023-01-13T05:22:50.740Z,74.84
2023-01-13T05:25:44.802Z,74.78
2023-01-13T05:28:37.036Z,74.85
2023-01-13T05:31:29.199Z,75.08
2023-01-13T05:34:21.391Z,74.66
2023-01-13T05:37:13.574Z,74.49
2023-01-13T05:40:24.455Z,74.73
2023-01-13T05:43:24.708Z,74.71
2023-01-13T05:46:17.735Z,74.47
2023-01-13T05:48:52.923Z,74.39
2023-01-13T05:51:45.136Z,74.56
2023-01-13T05:54:37.532Z,74.40
2023-01-13T05:57:12.395Z,74.70
2023-01-13T06:00:05.516Z,74.57
2023-01-13T06:02:57.917Z,74.42
2023-01-13T06:05:52.602Z,74.13
2023-01-13T06:08:44.922Z,74.28
2023-01-13T06:11:37.069Z,73.73
2023-01-13T06:14:41.137Z,74.09
2023-01-13T06:17:33.371Z,73.72
2023-01-13T06:20:26.096Z,73.64
2023-01-13T06:23:19.121Z,73.80
2023-01-13T06:26:16.992Z,73.64
2023-01-13T06:29:14.020Z,73.51
2023-01-13T06:32:13.001Z,73.86
2023-01-13T06:35:11.247Z,73.75
2023-01-13T06:38:06.326Z,74.06
2023-01-13T06:40:58.682Z,73.91
2023-01-13T06:43:53.100Z,73.94
2023-01-13T06:46:45.586Z,73.97
2023-01-13T06:49:38.774Z,73.65
2023-01-13T06:52:30.848Z,73.88
2023-01-13T06:55:23.182Z,73.61
2023-01-13T06:58:15.330Z,73.87
2023-01-13T07:01:00.626Z,73.94
2023-01-13T07:03:52.999Z,74.01
2023-01-13T07:06:45.285Z,74.01
2023-01-13T07:09:37.615Z,73.79
2023-01-13T07:12:29.848Z,73.58
2023-01-13T07:15:22.047Z,73.84
2023-01-13T07:18:14.263Z,73.87
2023-01-13T07:21:09.446Z,73.88
2023-01-13T07:24:01.681Z,73.95
2023-01-13T07:26:54.705Z,73.94
2023-01-13T07:29:46.784Z,74.04
2023-01-13T07:32:39.173Z,73.98
2023-01-13T07:35:12.106Z,74.13
2023-01-13T07:37:49.947Z,74.17
2023-01-13T07:40:42.568Z,74.06
2023-01-13T07:43:35.895Z,74.10
2023-01-13T07:46:28.051Z,74.06
2023-01-13T07:49:11.556Z,74.03
2023-01-13T07:52:03.662Z,73.98
2023-01-13T07:54:56.187Z,73.99
2023-01-13T07:57:49.178Z,73.90
2023-01-13T08:00:25.797Z,74.05
2023-01-13T08:03:18.013Z,73.97
2023-01-13T08:06:11.313Z,73.48
2023-01-13T08:09:03.654Z,73.46
2023-01-13T08:12:16.202Z,73.65
2023-01-13T08:15:10.709Z,73.49
2023-01-13T08:17:51.781Z,73.66
2023-01-13T08:20:44.505Z,73.42
2023-01-13T08:23:37.370Z,73.10
2023-01-13T08:26:29.585Z,73.54
2023-01-13T08:29:21.778Z,73.32
2023-01-13T08:32:13.894Z,73.57
2023-01-13T08:35:06.740Z,73.24
2023-01-13T08:37:41.887Z,73.16
2023-01-13T08:40:34.869Z,73.07
2023-01-13T08:43:16.020Z,73.12
2023-01-13T08:46:08.871Z,72.82
2023-01-13T08:48:51.781Z,72.90
2023-01-13T08:51:45.104Z,73.03
2023-01-13T08:54:38.310Z,73.04
2023-01-13T08:57:30.843Z,72.37
2023-01-13T09:00:23.483Z,72.66
2023-01-13T09:03:15.875Z,72.44
2023-01-13T09:05:50.697Z,72.80
2023-01-13T09:08:42.867Z,72.81
2023-01-13T09:11:56.216Z,72.12
2023-01-13T09:14:48.621Z,72.55
2023-01-13T09:17:40.870Z,71.50
2023-01-13T09:20:33.124Z,72.02
2023-01-13T09:23:25.249Z,70.87
2023-01-13T09:26:00.270Z,71.18
2023-01-13T09:28:43.570Z,71.27
2023-01-13T09:31:15.882Z,71.47
2023-01-13T09:34:26.923Z,71.34
2023-01-13T09:37:19.240Z,71.36
2023-01-13T09:40:18.047Z,71.66
2023-01-13T09:43:38.862Z,70.83
2023-01-13T09:46:47.387Z,71.20
2023-01-13T09:49:43.738Z,70.71
2023-01-13T09:52:38.215Z,70.41
2023-01-13T09:55:36.732Z,70.40
2023-01-13T09:58:29.837Z,70.94
2023-01-13T10:01:29.445Z,70.80
2023-01-13T10:04:21.951Z,69.74
2023-01-13T10:07:16.960Z,69.68
2023-01-13T10:10:18.517Z,70.31
2023-01-13T10:13:20.453Z,70.37
2023-01-13T10:16:27.532Z,69.71
2023-01-13T10:19:26.417Z,69.68
2023-01-13T10:22:29.280Z,70.33
2023-01-13T10:25:28.813Z,69.46
2023-01-13T10:28:23.908Z,69.29
2023-01-13T10:31:17.629Z,69.74
2023-01-13T10:34:10.419Z,69.00
2023-01-13T10:37:07.115Z,69.29
2023-01-13T10:40:02.337Z,69.20
2023-01-13T10:43:07.059Z,68.47
2023-01-13T10:48:24.219Z,68.21
2023-01-13T10:51:25.572Z,68.72
2023-01-13T10:54:25.129Z,68.48
2023-01-13T10:57:20.675Z,68.48
2023-01-13T11:01:26.929Z,68.08
2023-01-13T11:04:01.704Z,68.44
2023-01-13T11:06:54.207Z,68.68
2023-01-13T11:09:46.410Z,67.66
2023-01-13T11:12:45.484Z,67.80
2023-01-13T11:16:29.332Z,68.35
2023-01-13T11:19:25.821Z,67.17
2023-01-13T11:22:22.768Z,67.33
2023-01-13T11:25:20.558Z,68.02
2023-01-13T11:28:29.448Z,68.42
2023-01-13T11:31:29.732Z,68.11
2023-01-13T11:34:31.433Z,68.47
2023-01-13T11:37:19.832Z,67.95
2023-01-13T11:40:20.341Z,67.10
2023-01-13T11:43:21.127Z,68.15
2023-01-13T11:46:13.881Z,68.23
2023-01-13T11:48:57.377Z,68.16
2023-01-13T11:51:55.593Z,67.28
2023-01-13T11:55:11.435Z,67.57
2023-01-13T11:58:20.254Z,67.73
2023-01-13T12:01:24.967Z,67.72
2023-01-13T12:04:28.835Z,67.83
2023-01-13T12:07:31.651Z,67.52
2023-01-13T12:10:36.295Z,67.90
2023-01-13T12:13:40.998Z,68.20
2023-01-13T12:16:35.580Z,68.12
2023-01-13T12:19:30.858Z,67.93
2023-01-13T12:22:27.581Z,67.84
2023-01-13T12:25:13.964Z,67.14
2023-01-13T12:28:13.181Z,67.55
2023-01-13T12:31:07.378Z,66.99
2023-01-13T12:34:02.195Z,67.80
2023-01-13T12:37:02.285Z,67.37
2023-01-13T12:40:20.274Z,67.23
2023-01-13T12:43:39.086Z,67.74
2023-01-13T12:46:45.615Z,67.69
2023-01-13T12:49:37.814Z,67.82
2023-01-13T12:52:43.693Z,67.81
2023-01-13T12:55:27.073Z,67.95
2023-01-13T12:58:29.856Z,67.89
2023-01-13T13:01:37.091Z,67.94
2023-01-13T13:04:48.285Z,67.55
2023-01-13T13:07:46.876Z,67.82
2023-01-13T13:10:44.139Z,68.02
2023-01-13T13:13:49.675Z,67.86
2023-01-13T13:17:00.966Z,67.58
2023-01-13T13:19:54.076Z,67.86
2023-01-13T13:22:53.126Z,67.93
2023-01-13T13:26:05.525Z,67.89
2023-01-13T13:29:17.406Z,67.29
2023-01-13T13:32:55.846Z,67.48
2023-01-13T13:36:05.243Z,67.60
2023-01-13T13:39:29.141Z,67.88
2023-01-13T13:42:42.004Z,68.07
2023-01-13T13:45:52.197Z,67.79
2023-01-13T13:48:54.348Z,68.44
2023-01-13T13:51:53.518Z,68.43
2023-01-13T13:54:36.446Z,68.71
2023-01-13T13:57:37.428Z,69.98
2023-01-13T14:00:34.890Z,69.93
2023-01-13T14:03:31.440Z,69.61
2023-01-13T14:06:25.395Z,69.45
2023-01-13T14:09:21.234Z,69.37
2023-01-13T14:12:20.596Z,69.47
2023-01-13T14:15:27.754Z,69.44
2023-01-13T14:18:22.040Z,69.33
2023-01-13T14:21:20.272Z,69.45
2023-01-13T14:24:17.588Z,69.30
2023-01-13T14:27:17.427Z,69.43
2023-01-13T14:30:17.875Z,69.35
2023-01-13T14:33:17.384Z,69.51
2023-01-13T14:36:35.819Z,69.56
2023-01-13T14:39:37.547Z,69.58
2023-01-13T14:42:35.154Z,69.45
2023-01-13T14:45:28.220Z,69.67
2023-01-13T14:48:21.949Z,69.55
2023-01-13T14:51:22.816Z,69.69
2023-01-13T14:54:46.182Z,69.67
2023-01-13T14:57:32.386Z,69.77
2023-01-13T15:00:26.714Z,69.72
2023-01-13T15:03:20.958Z,69.82
2023-01-13T15:06:24.187Z,69.82
2023-01-13T15:09:24.777Z,69.89
2023-01-13T15:12:24.136Z,69.89
2023-01-13T15:15:26.993Z,70.07
2023-01-13T15:18:19.359Z,70.42
2023-01-13T15:21:15.583Z,70.36
2023-01-13T15:24:08.746Z,70.50
2023-01-13T15:26:50.629Z,70.38
2023-01-13T15:29:32.220Z,70.40
2023-01-13T15:32:24.599Z,70.35
2023-01-13T15:35:18.471Z,70.52
2023-01-13T15:38:14.640Z,70.38
2023-01-13T15:41:07.253Z,70.62
2023-01-13T15:43:59.717Z,70.61
2023-01-13T15:46:52.811Z,70.61
2023-01-13T15:49:46.926Z,70.66
2023-01-13T15:52:23.770Z,70.69
2023-01-13T15:55:16.186Z,70.54
2023-01-13T15:58:08.476Z,70.55
2023-01-13T16:01:00.755Z,70.56
2023-01-13T16:03:52.885Z,70.53
2023-01-13T16:06:29.270Z,70.42
2023-01-13T16:09:21.426Z,70.33
2023-01-13T16:12:13.875Z,70.37
2023-01-13T16:15:07.132Z,70.24
2023-01-13T16:18:03.646Z,70.25
2023-01-13T16:20:38.703Z,70.28
2023-01-13T16:23:30.873Z,70.45
2023-01-13T16:26:26.408Z,70.45
2023-01-13T16:29:18.690Z,70.50
2023-01-13T16:32:10.982Z,70.67
2023-01-13T16:35:03.304Z,70.72
2023-01-13T16:37:58.384Z,70.82
2023-01-13T16:40:35.665Z,70.67
2023-01-13T16:43:28.128Z,70.80
2023-01-13T16:46:25.705Z,70.77
2023-01-13T16:49:18.985Z,70.86
2023-01-13T16:52:11.666Z,70.96
2023-01-13T16:55:03.977Z,71.03
2023-01-13T16:57:54.791Z,71.08
2023-01-13T17:00:49.149Z,71.42
2023-01-13T17:03:41.566Z,71.69
2023-01-13T17:06:38.098Z,71.81
2023-01-13T17:09:31.689Z,71.98
2023-01-13T17:12:24.579Z,72.04
2023-01-13T17:15:19.150Z,71.85
2023-01-13T17:18:13.294Z,71.74
2023-01-13T17:21:07.305Z,71.75
2023-01-13T17:23:59.644Z,71.64
2023-01-13T17:26:53.771Z,71.98
2023-01-13T17:29:46.907Z,72.18
2023-01-13T17:32:39.293Z,72.21
2023-01-13T17:35:31.978Z,72.14
2023-01-13T17:38:24.781Z,72.26
2023-01-13T17:43:03.938Z,72.25
2023-01-13T17:45:57.483Z,72.49
2023-01-13T17:48:50.833Z,72.72
2023-01-13T17:51:43.288Z,72.85
2023-01-13T17:54:37.683Z,72.90
2023-01-13T17:57:29.912Z,73.04
2023-01-13T18:00:23.491Z,73.31
2023-01-13T18:03:16.382Z,73.33
2023-01-13T18:06:11.914Z,73.35
2023-01-13T18:09:04.455Z,73.54
2023-01-13T18:11:56.616Z,73.56
2023-01-13T18:14:48.883Z,73.60
2023-01-13T18:17:41.045Z,73.71
2023-01-13T18:20:51.139Z,73.90
2023-01-13T18:24:01.152Z,74.05
2023-01-13T18:27:11.083Z,74.16
2023-01-13T18:30:06.533Z,74.27
2023-01-13T18:32:58.728Z,74.46
2023-01-13T18:35:50.983Z,74.43
2023-01-13T18:38:43.191Z,74.51
2023-01-13T18:41:53.181Z,74.46
2023-01-13T18:44:45.421Z,74.49
2023-01-13T18:47:39.206Z,74.63
2023-01-13T18:50:34.535Z,74.70
2023-01-13T18:53:26.648Z,74.76
2023-01-13T18:56:19.900Z,74.85
2023-01-13T18:59:12.052Z,74.96
2023-01-13T19:02:15.422Z,74.94
2023-01-13T19:05:08.969Z,75.23
2023-01-13T19:08:01.107Z,75.39
2023-01-13T19:10:54.262Z,75.80
2023-01-13T19:13:46.440Z,76.25
2023-01-13T19:16:38.864Z,76.37
2023-01-13T19:19:32.557Z,76.58
2023-01-13T19:22:29.658Z,76.66
2023-01-13T19:25:21.996Z,76.76
2023-01-13T19:28:15.357Z,76.95
2023-01-13T19:31:10.083Z,76.84
2023-01-13T19:33:45.991Z,76.58
2023-01-13T19:36:38.122Z,76.76
2023-01-13T19:39:30.663Z,76.88
2023-01-13T19:42:40.569Z,76.95
2023-01-13T19:45:35.531Z,77.21
2023-01-13T19:48:27.796Z,77.19
2023-01-13T19:51:19.990Z,76.92
2023-01-13T19:54:12.154Z,77.07
2023-01-13T19:57:04.836Z,77.05
2023-01-13T19:59:45.819Z,77.29
2023-01-13T20:02:38.942Z,76.90
2023-01-13T20:05:31.341Z,76.82
2023-01-13T20:08:25.531Z,77.59
2023-01-13T20:11:31.018Z,76.95
2023-01-13T20:14:24.086Z,76.98
2023-01-13T20:17:17.623Z,77.08
2023-01-13T20:20:11.930Z,77.20
2023-01-13T20:22:50.363Z,77.51
2023-01-13T20:25:45.492Z,77.43
2023-01-13T20:28:39.625Z,77.39
2023-01-13T20:31:30.378Z,77.67
2023-01-13T20:34:26.027Z,77.45
2023-01-13T20:37:18.391Z,77.65
2023-01-13T20:40:14.603Z,77.78
2023-01-13T20:43:07.398Z,77.88
2023-01-13T20:45:59.588Z,77.56
2023-01-13T20:48:51.947Z,77.56
2023-01-13T20:51:44.347Z,77.37
2023-01-13T20:54:36.913Z,77.46
2023-01-13T20:57:29.044Z,77.46
2023-01-13T21:00:22.955Z,77.41
2023-01-13T21:03:15.115Z,77.51
2023-01-13T21:06:08.164Z,77.50
2023-01-13T21:09:00.477Z,77.62
2023-01-13T21:12:14.080Z,77.73
2023-01-13T21:15:09.250Z,77.85
2023-01-13T21:18:19.041Z,77.72
2023-01-13T21:21:11.188Z,77.79
2023-01-13T21:24:04.489Z,77.84
2023-01-13T21:26:58.778Z,77.91
2023-01-13T21:29:50.905Z,77.95
2023-01-13T21:32:44.023Z,78.04
2023-01-13T21:35:26.575Z,78.08
2023-01-13T21:38:20.200Z,77.78
2023-01-13T21:41:14.356Z,77.89
2023-01-13T21:44:25.143Z,78.07
2023-01-13T21:47:37.079Z,78.04
2023-01-13T21:50:30.563Z,78.11
2023-01-13T21:53:22.700Z,78.03
2023-01-13T21:56:14.886Z,78.04
2023-01-13T21:59:06.994Z,78.05
2023-01-13T22:02:24.642Z,77.96
2023-01-13T22:05:19.563Z,77.91
2023-01-13T22:08:14.986Z,78.00
2023-01-13T22:11:07.594Z,77.90
2023-01-13T22:14:10.179Z,78.08
2023-01-13T22:17:04.952Z,78.04
2023-01-13T22:19:57.599Z,77.95
2023-01-13T22:22:49.843Z,78.23
2023-01-13T22:25:42.052Z,78.25
2023-01-13T22:28:40.484Z,78.07
2023-01-13T22:31:32.704Z,78.07
2023-01-13T22:34:30.870Z,78.05
2023-01-13T22:37:23.032Z,78.05
2023-01-13T22:40:15.961Z,78.00
2023-01-13T22:42:53.538Z,78.07
2023-01-13T22:45:45.657Z,78.04
2023-01-13T22:48:29.531Z,78.12
2023-01-13T22:51:22.781Z,78.14
2023-01-13T22:54:15.863Z,78.20
2023-01-13T22:57:08.211Z,78.25
2023-01-13T23:00:00.322Z,78.29
2023-01-13T23:02:52.470Z,78.31
2023-01-13T23:05:45.878Z,78.31
2023-01-13T23:08:38.506Z,78.28
2023-01-13T23:11:33.541Z,78.21
2023-01-13T23:14:26.088Z,78.37
2023-01-13T23:17:18.502Z,78.30
2023-01-13T23:20:12.501Z,78.20
2023-01-13T23:23:04.824Z,78.23
2023-01-13T23:25:57.939Z,78.26
2023-01-13T23:28:50.576Z,78.20
2023-01-13T23:31:25.520Z,78.33
2023-01-13T23:34:17.660Z,78.54
2023-01-13T23:37:09.772Z,78.57
2023-01-13T23:40:03.189Z,78.58
2023-01-13T23:42:55.289Z,78.47
2023-01-13T23:45:47.563Z,78.52
2023-01-13T23:48:39.845Z,78.51
2023-01-13T23:51:33.213Z,78.44
2023-01-13T23:54:26.805Z,78.47
2023-01-13T23:57:19.046Z,78.52
